createdAt,value
2022-09-06T00:04:53.035Z,70
2022-09-06T00:15:54.838Z,60
2022-09-06T00:21:35.307Z,66
2022-09-06T00:27:15.652Z,74
2022-09-06T00:32:56.125Z,64
2022-09-06T00:38:36.578Z,66
2022-09-06T00:44:16.818Z,66
2022-09-06T00:49:56.991Z,62
2022-09-06T00:55:48.851Z,72
2022-09-06T01:01:30.908Z,68
2022-09-06T01:07:11.902Z,74
2022-09-06T01:12:52.529Z,70
2022-09-06T01:18:32.998Z,66
2022-09-06T01:24:13.044Z,82
2022-09-06T01:29:53.273Z,78
2022-09-06T01:35:33.391Z,66
2022-09-06T01:41:13.527Z,62
2022-09-06T01:52:33.930Z,64
2022-09-06T01:58:14.184Z,64
2022-09-06T02:03:54.472Z,70
2022-09-06T02:09:34.584Z,68
2022-09-06T02:15:14.638Z,68
2022-09-06T02:20:54.803Z,76
2022-09-06T02:26:34.994Z,74
2022-09-06T02:32:15.215Z,60
2022-09-06T02:37:55.354Z,58
2022-09-06T02:43:35.480Z,76
2022-09-06T02:49:15.760Z,78
2022-09-06T02:54:56.077Z,66
2022-09-06T03:00:36.238Z,88
2022-09-06T03:06:16.360Z,74
2022-09-06T03:11:58.671Z,64
2022-09-06T03:20:50.707Z,58
2022-09-06T03:27:01.881Z,60
2022-09-06T03:33:03.011Z,60
2022-09-06T03:40:38.769Z,60
2022-09-06T03:46:24.358Z,54
2022-09-06T03:52:07.359Z,50
2022-09-06T03:57:48.925Z,66
2022-09-06T04:03:46.486Z,54
2022-09-06T04:09:42.102Z,66
2022-09-06T04:15:23.295Z,58
2022-09-06T04:21:04.667Z,62
2022-09-06T04:26:45.399Z,78
2022-09-06T04:32:25.830Z,74
2022-09-06T04:38:06.177Z,72
2022-09-06T04:43:46.732Z,54
2022-09-06T04:49:28.064Z,72
2022-09-06T04:55:08.449Z,70
2022-09-06T05:00:49.296Z,62
2022-09-06T05:12:10.805Z,52
2022-09-06T05:17:51.035Z,58
2022-09-06T05:23:31.518Z,66
2022-09-06T05:29:16.244Z,66
2022-09-06T05:35:18.010Z,72
2022-09-06T05:47:05.965Z,72
2022-09-06T05:52:59.346Z,70
2022-09-06T06:03:17.409Z,70
2022-09-06T06:08:59.279Z,74
2022-09-06T06:14:39.476Z,66
2022-09-06T06:20:44.378Z,44
2022-09-06T08:02:59.442Z,84
2022-09-06T08:08:58.513Z,64
2022-09-06T08:14:39.925Z,32
2022-09-06T08:20:22.569Z,24
2022-09-06T08:26:02.565Z,24
2022-09-06T08:31:43.313Z,38
2022-09-06T08:37:28.519Z,18
2022-09-06T08:43:11.993Z,30
2022-09-06T08:48:55.741Z,40
2022-09-06T08:54:39.558Z,38
2022-09-06T09:00:19.685Z,32
2022-09-06T09:06:01.255Z,72
2022-09-06T09:11:45.338Z,12
2022-09-06T09:23:24.155Z,8
2022-09-06T09:29:09.932Z,0
2022-09-06T09:34:52.652Z,2
2022-09-06T09:40:33.042Z,6
2022-09-06T09:46:14.070Z,6
2022-09-06T09:52:02.036Z,0
2022-09-06T09:57:53.023Z,2
2022-09-06T10:04:45.293Z,22
2022-09-06T10:10:26.643Z,0
2022-09-06T10:16:07.502Z,0
2022-09-06T10:27:32.596Z,4
2022-09-06T10:33:24.532Z,0
2022-09-06T10:39:04.916Z,2
2022-09-06T10:44:46.495Z,0
2022-09-06T10:50:31.137Z,4
2022-09-06T10:56:14.417Z,0
2022-09-06T11:01:55.798Z,4
2022-09-06T11:07:37.514Z,0
2022-09-06T11:13:18.246Z,16
2022-09-06T11:19:04.633Z,8
2022-09-06T11:24:45.133Z,2
2022-09-06T11:30:25.211Z,2
2022-09-06T11:36:05.009Z,6
2022-09-06T11:41:47.804Z,0
2022-09-06T11:47:31.978Z,4
2022-09-06T11:53:12.327Z,0
2022-09-06T11:58:51.984Z,4
2022-09-06T12:04:33.031Z,0
2022-09-06T12:10:12.689Z,2
2022-09-06T12:15:53.495Z,0
2022-09-06T12:21:34.010Z,6
2022-09-06T12:27:14.626Z,0
2022-09-06T12:33:05.812Z,2
2022-09-06T12:38:52.041Z,2
2022-09-06T12:44:34.921Z,2
2022-09-06T12:50:15.131Z,0
2022-09-06T12:55:55.727Z,0
2022-09-06T14:31:54.343Z,86
2022-09-06T14:37:34.772Z,78
2022-09-06T14:43:17.483Z,84
2022-09-06T14:48:57.703Z,80
2022-09-06T14:54:37.790Z,76
2022-09-06T15:00:17.747Z,78
2022-09-06T15:05:57.843Z,74
2022-09-06T15:11:38.230Z,84
2022-09-06T15:17:18.781Z,82
2022-09-06T15:23:26.318Z,82
2022-09-06T15:29:06.826Z,74
2022-09-06T15:34:47.771Z,80
2022-09-06T15:40:27.989Z,72
2022-09-06T15:51:48.528Z,76
2022-09-06T15:57:28.709Z,76
2022-09-06T16:03:08.936Z,86
2022-09-06T16:08:49.112Z,78
2022-09-06T16:14:29.289Z,76
2022-09-06T16:20:09.823Z,72
2022-09-06T16:25:50.059Z,82
2022-09-06T16:31:30.841Z,72
2022-09-06T16:37:11.137Z,84
2022-09-06T16:42:51.317Z,88
2022-09-06T16:48:32.051Z,76
2022-09-06T16:54:12.260Z,78
2022-09-06T16:59:52.756Z,74
2022-09-06T17:05:33.017Z,70
2022-09-06T17:11:13.424Z,72
2022-09-06T17:16:56.718Z,72
2022-09-06T17:22:37.202Z,76
2022-09-06T17:28:17.302Z,74
2022-09-06T17:33:57.449Z,78
2022-09-06T17:45:18.230Z,86
2022-09-06T17:50:58.487Z,82
2022-09-06T17:56:38.697Z,72
2022-09-06T18:02:19.385Z,76
2022-09-06T18:07:59.483Z,82
2022-09-06T18:13:39.936Z,70
2022-09-06T18:19:19.967Z,82
2022-09-06T18:25:02.911Z,80
2022-09-06T18:30:45.869Z,80
2022-09-06T18:36:33.066Z,66
2022-09-06T18:42:13.806Z,76
2022-09-06T18:47:53.995Z,88
2022-09-06T18:53:36.176Z,68
2022-09-06T18:59:18.849Z,70
2022-09-06T19:04:59.213Z,78
2022-09-06T19:10:39.857Z,66
2022-09-06T19:16:20.631Z,80
2022-09-06T19:22:01.241Z,80
2022-09-06T19:27:49.766Z,102
2022-09-06T19:33:36.760Z,78
2022-09-06T19:39:17.160Z,72
2022-09-06T19:44:57.853Z,76
2022-09-06T19:50:38.074Z,76
2022-09-06T19:56:18.280Z,72
2022-09-06T20:01:59.117Z,68
2022-09-06T20:07:39.841Z,70
2022-09-06T20:13:20.093Z,70
2022-09-06T20:19:00.688Z,66
2022-09-06T20:24:41.186Z,80
2022-09-06T20:30:21.250Z,68
2022-09-06T20:38:58.862Z,68
2022-09-06T20:49:53.845Z,100
2022-09-06T20:55:34.933Z,74
2022-09-06T21:01:17.900Z,78
2022-09-06T21:06:58.867Z,76
2022-09-06T21:12:39.069Z,78
2022-09-06T21:18:19.282Z,68
2022-09-06T21:23:59.840Z,78
2022-09-06T21:29:40.193Z,66
2022-09-06T21:35:20.188Z,78
2022-09-06T21:46:41.678Z,72
2022-09-06T21:52:21.806Z,68
2022-09-06T21:58:01.513Z,80
2022-09-06T22:03:41.120Z,70
2022-09-06T22:09:21.255Z,66
2022-09-06T22:15:01.554Z,66
2022-09-06T22:20:44.613Z,70
2022-09-06T22:26:25.180Z,72
2022-09-06T22:32:05.268Z,62
2022-09-06T22:37:47.788Z,66
2022-09-06T22:43:27.628Z,72
2022-09-06T22:49:07.628Z,72
2022-09-06T22:54:47.716Z,72
2022-09-06T23:00:28.715Z,74
2022-09-06T23:06:09.047Z,76
2022-09-06T23:11:49.257Z,70
2022-09-06T23:17:29.380Z,64
2022-09-06T23:23:09.703Z,66
2022-09-06T23:28:49.877Z,68
2022-09-06T23:40:10.536Z,62
2022-09-06T23:45:50.665Z,72
2022-09-06T23:51:31.060Z,66
2022-09-06T23:57:11.101Z,76
